sensor_id;sensor_type;location;lat;lon;timestamp;P1;durP1;ratioP1;P2;durP2;ratioP2
12912;SDS011;6524;51.368;11.984;2023-03-14T00:03:59;1.60;;;1.50;;
12912;SDS011;6524;51.368;11.984;2023-03-14T00:08:59;1.55;;;1.40;;
12912;SDS011;6524;51.368;11.984;2023-03-14T00:14:00;1.65;;;1.25;;
12912;SDS011;6524;51.368;11.984;2023-03-14T00:19:00;3.67;;;2.95;;
12912;SDS011;6524;51.368;11.984;2023-03-14T00:24:01;1.38;;;1.27;;
12912;SDS011;6524;51.368;11.984;2023-03-14T00:29:01;2.83;;;2.03;;
12912;SDS011;6524;51.368;11.984;2023-03-14T00:34:02;1.40;;;1.30;;
12912;SDS011;6524;51.368;11.984;2023-03-14T00:39:02;1.58;;;1.33;;
12912;SDS011;6524;51.368;11.984;2023-03-14T00:44:03;1.35;;;1.15;;
12912;SDS011;6524;51.368;11.984;2023-03-14T00:49:03;1.33;;;1.23;;
12912;SDS011;6524;51.368;11.984;2023-03-14T00:54:04;1.38;;;1.20;;
12912;SDS011;6524;51.368;11.984;2023-03-14T00:59:04;1.50;;;1.40;;
12912;SDS011;6524;51.368;11.984;2023-03-14T05:01:53;3.30;;;1.60;;
12912;SDS011;6524;51.368;11.984;2023-03-14T05:06:54;4.07;;;2.45;;
12912;SDS011;6524;51.368;11.984;2023-03-14T05:11:54;3.55;;;1.80;;
12912;SDS011;6524;51.368;11.984;2023-03-14T05:16:55;3.40;;;2.00;;
12912;SDS011;6524;51.368;11.984;2023-03-14T05:21:55;3.50;;;1.90;;
12912;SDS011;6524;51.368;11.984;2023-03-14T05:26:56;2.72;;;1.73;;
12912;SDS011;6524;51.368;11.984;2023-03-14T05:31:56;4.10;;;1.80;;
12912;SDS011;6524;51.368;11.984;2023-03-14T05:36:56;4.40;;;1.90;;
12912;SDS011;6524;51.368;11.984;2023-03-14T05:41:57;2.60;;;1.70;;
12912;SDS011;6524;51.368;11.984;2023-03-14T05:46:57;4.45;;;1.90;;
12912;SDS011;6524;51.368;11.984;2023-03-14T05:51:57;4.85;;;2.03;;
12912;SDS011;6524;51.368;11.984;2023-03-14T05:56:58;3.85;;;1.80;;
12912;SDS011;6524;51.368;11.984;2023-03-14T06:01:58;3.88;;;1.63;;
12912;SDS011;6524;51.368;11.984;2023-03-14T06:06:58;3.45;;;1.70;;
12912;SDS011;6524;51.368;11.984;2023-03-14T06:11:59;5.38;;;3.10;;
12912;SDS011;6524;51.368;11.984;2023-03-14T06:16:59;2.45;;;1.60;;
12912;SDS011;6524;51.368;11.984;2023-03-14T06:22:00;5.90;;;1.77;;
12912;SDS011;6524;51.368;11.984;2023-03-14T06:27:00;2.72;;;1.70;;
12912;SDS011;6524;51.368;11.984;2023-03-14T06:32:02;2.78;;;1.60;;
12912;SDS011;6524;51.368;11.984;2023-03-14T06:37:02;2.13;;;1.50;;
12912;SDS011;6524;51.368;11.984;2023-03-14T06:42:03;3.53;;;1.50;;
12912;SDS011;6524;51.368;11.984;2023-03-14T06:47:03;2.40;;;1.42;;
12912;SDS011;6524;51.368;11.984;2023-03-14T06:52:04;2.25;;;1.40;;
12912;SDS011;6524;51.368;11.984;2023-03-14T06:57:04;2.30;;;1.58;;
12912;SDS011;6524;51.368;11.984;2023-03-14T07:02:05;3.78;;;1.42;;
12912;SDS011;6524;51.368;11.984;2023-03-14T07:07:07;3.53;;;1.58;;
12912;SDS011;6524;51.368;11.984;2023-03-14T07:12:08;2.20;;;1.40;;
12912;SDS011;6524;51.368;11.984;2023-03-14T07:17:08;1.60;;;1.50;;
12912;SDS011;6524;51.368;11.984;2023-03-14T07:22:09;3.67;;;1.50;;
12912;SDS011;6524;51.368;11.984;2023-03-14T07:27:10;3.17;;;1.52;;
12912;SDS011;6524;51.368;11.984;2023-03-14T07:32:10;1.70;;;1.30;;
12912;SDS011;6524;51.368;11.984;2023-03-14T07:37:14;3.22;;;1.55;;
12912;SDS011;6524;51.368;11.984;2023-03-14T07:42:15;2.70;;;1.50;;
12912;SDS011;6524;51.368;11.984;2023-03-14T07:47:15;3.00;;;1.70;;
12912;SDS011;6524;51.368;11.984;2023-03-14T07:52:16;2.13;;;1.27;;
12912;SDS011;6524;51.368;11.984;2023-03-14T07:57:16;2.47;;;1.67;;
12912;SDS011;6524;51.368;11.984;2023-03-14T08:02:16;2.95;;;1.60;;
12912;SDS011;6524;51.368;11.984;2023-03-14T08:07:18;2.15;;;1.35;;
12912;SDS011;6524;51.368;11.984;2023-03-14T08:12:18;3.65;;;1.58;;
12912;SDS011;6524;51.368;11.984;2023-03-14T08:17:18;3.30;;;1.50;;
12912;SDS011;6524;51.368;11.984;2023-03-14T08:22:18;2.43;;;1.50;;
12912;SDS011;6524;51.368;11.984;2023-03-14T08:27:19;2.20;;;1.45;;
12912;SDS011;6524;51.368;11.984;2023-03-14T08:32:19;2.23;;;1.20;;
12912;SDS011;6524;51.368;11.984;2023-03-14T08:37:20;3.08;;;1.67;;
12912;SDS011;6524;51.368;11.984;2023-03-14T08:42:20;2.53;;;1.38;;
12912;SDS011;6524;51.368;11.984;2023-03-14T08:47:20;2.60;;;1.48;;
12912;SDS011;6524;51.368;11.984;2023-03-14T08:52:21;1.83;;;1.15;;
12912;SDS011;6524;51.368;11.984;2023-03-14T08:57:21;2.08;;;1.30;;
12912;SDS011;6524;51.368;11.984;2023-03-14T09:02:27;2.53;;;1.40;;
12912;SDS011;6524;51.368;11.984;2023-03-14T09:07:27;1.25;;;1.15;;
12912;SDS011;6524;51.368;11.984;2023-03-14T09:12:28;3.47;;;1.40;;
12912;SDS011;6524;51.368;11.984;2023-03-14T09:17:29;1.60;;;0.93;;
12912;SDS011;6524;51.368;11.984;2023-03-14T09:22:29;1.67;;;1.27;;
12912;SDS011;6524;51.368;11.984;2023-03-14T09:27:29;2.38;;;1.50;;
12912;SDS011;6524;51.368;11.984;2023-03-14T09:32:30;3.22;;;1.20;;
12912;SDS011;6524;51.368;11.984;2023-03-14T09:37:34;1.30;;;1.10;;
12912;SDS011;6524;51.368;11.984;2023-03-14T09:42:34;2.33;;;1.33;;
12912;SDS011;6524;51.368;11.984;2023-03-14T09:47:38;3.38;;;1.75;;
12912;SDS011;6524;51.368;11.984;2023-03-14T09:52:40;1.75;;;1.15;;
12912;SDS011;6524;51.368;11.984;2023-03-14T09:57:46;1.42;;;1.05;;
12912;SDS011;6524;51.368;11.984;2023-03-14T10:02:55;1.10;;;1.00;;
12912;SDS011;6524;51.368;11.984;2023-03-14T10:08:16;2.55;;;1.83;;
12912;SDS011;6524;51.368;11.984;2023-03-14T10:18:18;1.77;;;1.30;;
12912;SDS011;6524;51.368;11.984;2023-03-14T10:23:22;2.45;;;1.33;;
12912;SDS011;6524;51.368;11.984;2023-03-14T10:28:28;1.27;;;1.10;;
12912;SDS011;6524;51.368;11.984;2023-03-14T10:33:34;2.00;;;1.10;;
12912;SDS011;6524;51.368;11.984;2023-03-14T10:38:36;2.58;;;1.85;;
12912;SDS011;6524;51.368;11.984;2023-03-14T10:43:36;2.10;;;1.05;;
12912;SDS011;6524;51.368;11.984;2023-03-14T10:48:39;1.58;;;1.17;;
12912;SDS011;6524;51.368;11.984;2023-03-14T10:53:46;1.77;;;1.02;;
12912;SDS011;6524;51.368;11.984;2023-03-14T10:58:48;1.65;;;0.90;;
12912;SDS011;6524;51.368;11.984;2023-03-14T11:04:35;1.13;;;1.05;;
12912;SDS011;6524;51.368;11.984;2023-03-14T11:20:24;1.10;;;0.85;;
12912;SDS011;6524;51.368;11.984;2023-03-14T11:36:33;0.98;;;0.95;;
12912;SDS011;6524;51.368;11.984;2023-03-14T11:41:39;1.35;;;0.90;;
12912;SDS011;6524;51.368;11.984;2023-03-14T11:46:42;1.80;;;0.90;;
12912;SDS011;6524;51.368;11.984;2023-03-14T11:52:03;0.80;;;0.80;;
12912;SDS011;6524;51.368;11.984;2023-03-14T11:57:10;1.00;;;0.90;;
12912;SDS011;6524;51.368;11.984;2023-03-14T12:07:23;1.00;;;0.77;;
12912;SDS011;6524;51.368;11.984;2023-03-14T12:12:35;0.90;;;0.90;;
12912;SDS011;6524;51.368;11.984;2023-03-14T12:17:39;1.13;;;1.00;;
12912;SDS011;6524;51.368;11.984;2023-03-14T12:22:43;1.38;;;0.88;;
12912;SDS011;6524;51.368;11.984;2023-03-14T12:33:11;1.25;;;0.98;;
12912;SDS011;6524;51.368;11.984;2023-03-14T12:38:32;0.88;;;0.88;;
12912;SDS011;6524;51.368;11.984;2023-03-14T12:43:41;1.20;;;0.70;;
12912;SDS011;6524;51.368;11.984;2023-03-14T12:48:42;1.38;;;1.27;;
12912;SDS011;6524;51.368;11.984;2023-03-14T12:53:56;0.95;;;0.90;;
12912;SDS011;6524;51.368;11.984;2023-03-14T13:04:27;0.70;;;0.70;;
12912;SDS011;6524;51.368;11.984;2023-03-14T13:14:50;1.05;;;0.90;;
12912;SDS011;6524;51.368;11.984;2023-03-14T13:19:57;0.70;;;0.70;;
12912;SDS011;6524;51.368;11.984;2023-03-14T13:25:04;0.80;;;0.80;;
12912;SDS011;6524;51.368;11.984;2023-03-14T13:35:17;1.13;;;1.00;;
12912;SDS011;6524;51.368;11.984;2023-03-14T13:40:42;1.77;;;1.50;;
12912;SDS011;6524;51.368;11.984;2023-03-14T13:45:48;1.73;;;1.40;;
12912;SDS011;6524;51.368;11.984;2023-03-14T13:50:52;0.85;;;0.80;;
12912;SDS011;6524;51.368;11.984;2023-03-14T13:55:56;0.90;;;0.90;;
12912;SDS011;6524;51.368;11.984;2023-03-14T14:01:01;1.10;;;1.00;;
12912;SDS011;6524;51.368;11.984;2023-03-14T14:06:05;0.88;;;0.88;;
12912;SDS011;6524;51.368;11.984;2023-03-14T14:11:13;1.40;;;0.93;;
12912;SDS011;6524;51.368;11.984;2023-03-14T14:16:22;0.60;;;0.60;;
12912;SDS011;6524;51.368;11.984;2023-03-14T14:21:24;1.00;;;0.90;;
12912;SDS011;6524;51.368;11.984;2023-03-14T14:26:25;1.35;;;1.25;;
12912;SDS011;6524;51.368;11.984;2023-03-14T14:31:26;1.52;;;1.10;;
12912;SDS011;6524;51.368;11.984;2023-03-14T14:36:28;0.85;;;0.85;;
12912;SDS011;6524;51.368;11.984;2023-03-14T14:41:32;1.05;;;1.02;;
12912;SDS011;6524;51.368;11.984;2023-03-14T14:46:35;0.95;;;0.88;;
12912;SDS011;6524;51.368;11.984;2023-03-14T14:51:44;1.48;;;1.10;;
12912;SDS011;6524;51.368;11.984;2023-03-14T14:56:51;6.68;;;1.70;;
12912;SDS011;6524;51.368;11.984;2023-03-14T15:01:59;1.02;;;0.90;;
12912;SDS011;6524;51.368;11.984;2023-03-14T15:07:01;1.38;;;1.20;;
12912;SDS011;6524;51.368;11.984;2023-03-14T15:12:02;1.95;;;1.30;;
12912;SDS011;6524;51.368;11.984;2023-03-14T15:17:03;2.55;;;1.50;;
12912;SDS011;6524;51.368;11.984;2023-03-14T15:22:04;1.40;;;1.30;;
12912;SDS011;6524;51.368;11.984;2023-03-14T15:27:15;1.40;;;1.30;;
12912;SDS011;6524;51.368;11.984;2023-03-14T15:32:17;1.48;;;1.30;;
12912;SDS011;6524;51.368;11.984;2023-03-14T15:37:18;1.17;;;1.10;;
12912;SDS011;6524;51.368;11.984;2023-03-14T15:42:18;1.40;;;1.30;;
12912;SDS011;6524;51.368;11.984;2023-03-14T15:47:18;1.60;;;1.50;;
12912;SDS011;6524;51.368;11.984;2023-03-14T15:52:19;1.50;;;1.40;;
12912;SDS011;6524;51.368;11.984;2023-03-14T15:57:19;1.30;;;1.20;;
12912;SDS011;6524;51.368;11.984;2023-03-14T16:02:20;1.43;;;1.10;;
12912;SDS011;6524;51.368;11.984;2023-03-14T16:07:20;2.57;;;1.40;;
12912;SDS011;6524;51.368;11.984;2023-03-14T16:12:20;4.50;;;2.10;;
12912;SDS011;6524;51.368;11.984;2023-03-14T16:17:21;4.47;;;2.37;;
12912;SDS011;6524;51.368;11.984;2023-03-14T16:22:21;4.57;;;1.80;;
12912;SDS011;6524;51.368;11.984;2023-03-14T16:27:21;7.47;;;2.43;;
12912;SDS011;6524;51.368;11.984;2023-03-14T16:32:22;4.60;;;2.13;;
12912;SDS011;6524;51.368;11.984;2023-03-14T16:37:23;5.60;;;1.90;;
12912;SDS011;6524;51.368;11.984;2023-03-14T16:42:24;4.30;;;2.10;;
12912;SDS011;6524;51.368;11.984;2023-03-14T16:47:24;4.20;;;1.90;;
12912;SDS011;6524;51.368;11.984;2023-03-14T16:52:25;6.40;;;2.03;;
12912;SDS011;6524;51.368;11.984;2023-03-14T16:57:25;4.27;;;1.90;;
12912;SDS011;6524;51.368;11.984;2023-03-14T17:02:25;7.43;;;2.20;;
12912;SDS011;6524;51.368;11.984;2023-03-14T17:07:26;5.37;;;2.33;;
12912;SDS011;6524;51.368;11.984;2023-03-14T17:12:26;6.73;;;2.07;;
12912;SDS011;6524;51.368;11.984;2023-03-14T17:17:26;4.67;;;2.20;;
12912;SDS011;6524;51.368;11.984;2023-03-14T17:22:27;6.90;;;2.20;;
12912;SDS011;6524;51.368;11.984;2023-03-14T17:27:30;6.80;;;2.07;;
12912;SDS011;6524;51.368;11.984;2023-03-14T17:32:31;6.47;;;2.53;;
12912;SDS011;6524;51.368;11.984;2023-03-14T17:37:34;7.60;;;2.60;;
12912;SDS011;6524;51.368;11.984;2023-03-14T17:48:09;7.37;;;2.53;;
12912;SDS011;6524;51.368;11.984;2023-03-14T17:53:10;7.87;;;2.63;;
12912;SDS011;6524;51.368;11.984;2023-03-14T17:58:10;10.27;;;2.53;;
12912;SDS011;6524;51.368;11.984;2023-03-14T18:03:11;5.53;;;2.87;;
12912;SDS011;6524;51.368;11.984;2023-03-14T18:08:29;8.80;;;3.27;;
12912;SDS011;6524;51.368;11.984;2023-03-14T18:13:38;8.83;;;2.80;;
12912;SDS011;6524;51.368;11.984;2023-03-14T18:18:43;12.40;;;3.47;;
12912;SDS011;6524;51.368;11.984;2023-03-14T18:23:48;8.30;;;3.10;;
12912;SDS011;6524;51.368;11.984;2023-03-14T18:28:50;6.63;;;2.37;;
12912;SDS011;6524;51.368;11.984;2023-03-14T18:33:51;7.27;;;2.43;;
12912;SDS011;6524;51.368;11.984;2023-03-14T18:39:01;9.17;;;2.77;;
12912;SDS011;6524;51.368;11.984;2023-03-14T18:44:05;6.97;;;2.57;;
12912;SDS011;6524;51.368;11.984;2023-03-14T18:49:08;9.30;;;2.70;;
12912;SDS011;6524;51.368;11.984;2023-03-14T18:54:13;10.43;;;2.77;;
12912;SDS011;6524;51.368;11.984;2023-03-14T18:59:14;7.30;;;2.73;;
12912;SDS011;6524;51.368;11.984;2023-03-14T19:04:17;9.90;;;2.90;;
12912;SDS011;6524;51.368;11.984;2023-03-14T19:09:17;8.30;;;2.73;;
12912;SDS011;6524;51.368;11.984;2023-03-14T19:14:18;8.80;;;3.07;;
12912;SDS011;6524;51.368;11.984;2023-03-14T19:19:19;10.77;;;2.77;;
12912;SDS011;6524;51.368;11.984;2023-03-14T19:24:20;9.53;;;3.97;;
12912;SDS011;6524;51.368;11.984;2023-03-14T19:29:21;9.87;;;3.50;;
12912;SDS011;6524;51.368;11.984;2023-03-14T19:34:22;8.20;;;2.60;;
12912;SDS011;6524;51.368;11.984;2023-03-14T19:39:22;7.60;;;2.70;;
12912;SDS011;6524;51.368;11.984;2023-03-14T19:44:23;6.40;;;2.30;;
12912;SDS011;6524;51.368;11.984;2023-03-14T19:49:25;8.63;;;2.53;;
12912;SDS011;6524;51.368;11.984;2023-03-14T19:54:26;7.27;;;2.43;;
12912;SDS011;6524;51.368;11.984;2023-03-14T19:59:26;8.80;;;2.50;;
12912;SDS011;6524;51.368;11.984;2023-03-14T20:04:26;6.07;;;2.30;;
12912;SDS011;6524;51.368;11.984;2023-03-14T20:09:27;6.13;;;2.13;;
12912;SDS011;6524;51.368;11.984;2023-03-14T20:14:27;6.23;;;2.13;;
12912;SDS011;6524;51.368;11.984;2023-03-14T20:19:28;6.03;;;2.10;;
12912;SDS011;6524;51.368;11.984;2023-03-14T20:24:28;6.40;;;2.13;;
12912;SDS011;6524;51.368;11.984;2023-03-14T20:29:31;6.33;;;2.20;;
12912;SDS011;6524;51.368;11.984;2023-03-14T20:34:31;7.80;;;2.83;;
12912;SDS011;6524;51.368;11.984;2023-03-14T20:39:33;6.57;;;2.50;;
12912;SDS011;6524;51.368;11.984;2023-03-14T20:44:34;5.20;;;2.13;;
12912;SDS011;6524;51.368;11.984;2023-03-14T20:49:34;6.90;;;2.20;;
12912;SDS011;6524;51.368;11.984;2023-03-14T20:54:34;6.80;;;2.83;;
12912;SDS011;6524;51.368;11.984;2023-03-14T20:59:35;7.33;;;4.50;;
12912;SDS011;6524;51.368;11.984;2023-03-14T21:04:35;7.93;;;3.07;;
12912;SDS011;6524;51.368;11.984;2023-03-14T21:09:35;5.73;;;2.70;;
12912;SDS011;6524;51.368;11.984;2023-03-14T21:14:37;7.13;;;2.40;;
12912;SDS011;6524;51.368;11.984;2023-03-14T21:19:37;6.07;;;2.30;;
12912;SDS011;6524;51.368;11.984;2023-03-14T21:24:39;8.03;;;3.50;;
12912;SDS011;6524;51.368;11.984;2023-03-14T21:29:40;7.07;;;2.23;;
12912;SDS011;6524;51.368;11.984;2023-03-14T21:34:40;7.47;;;2.50;;
12912;SDS011;6524;51.368;11.984;2023-03-14T21:39:41;7.17;;;2.20;;
12912;SDS011;6524;51.368;11.984;2023-03-14T21:44:41;5.70;;;2.73;;
12912;SDS011;6524;51.368;11.984;2023-03-14T21:49:47;5.40;;;2.30;;
12912;SDS011;6524;51.368;11.984;2023-03-14T21:54:49;5.93;;;2.20;;
12912;SDS011;6524;51.368;11.984;2023-03-14T21:59:49;5.60;;;2.50;;
12912;SDS011;6524;51.368;11.984;2023-03-14T22:04:50;6.80;;;2.10;;
12912;SDS011;6524;51.368;11.984;2023-03-14T22:09:50;7.23;;;2.30;;
12912;SDS011;6524;51.368;11.984;2023-03-14T22:14:52;6.43;;;2.10;;
12912;SDS011;6524;51.368;11.984;2023-03-14T22:19:52;6.57;;;2.27;;
12912;SDS011;6524;51.368;11.984;2023-03-14T22:24:52;6.20;;;2.33;;
12912;SDS011;6524;51.368;11.984;2023-03-14T22:29:53;8.17;;;2.17;;
12912;SDS011;6524;51.368;11.984;2023-03-14T22:34:53;6.57;;;2.50;;
12912;SDS011;6524;51.368;11.984;2023-03-14T22:39:54;5.03;;;2.30;;
12912;SDS011;6524;51.368;11.984;2023-03-14T22:44:54;5.37;;;2.60;;
12912;SDS011;6524;51.368;11.984;2023-03-14T22:49:54;6.47;;;2.37;;
12912;SDS011;6524;51.368;11.984;2023-03-14T22:54:55;9.30;;;2.57;;
12912;SDS011;6524;51.368;11.984;2023-03-14T22:59:55;5.77;;;2.10;;
12912;SDS011;6524;51.368;11.984;2023-03-14T23:04:55;6.90;;;2.30;;
12912;SDS011;6524;51.368;11.984;2023-03-14T23:09:56;7.07;;;2.47;;
12912;SDS011;6524;51.368;11.984;2023-03-14T23:14:56;5.03;;;2.37;;
12912;SDS011;6524;51.368;11.984;2023-03-14T23:19:56;6.23;;;2.10;;
12912;SDS011;6524;51.368;11.984;2023-03-14T23:24:59;5.83;;;2.00;;
12912;SDS011;6524;51.368;11.984;2023-03-14T23:30:00;8.47;;;2.00;;
12912;SDS011;6524;51.368;11.984;2023-03-14T23:35:01;6.83;;;2.50;;
12912;SDS011;6524;51.368;11.984;2023-03-14T23:40:02;5.97;;;2.27;;
12912;SDS011;6524;51.368;11.984;2023-03-14T23:45:05;5.53;;;2.27;;
12912;SDS011;6524;51.368;11.984;2023-03-14T23:50:06;7.93;;;2.67;;
12912;SDS011;6524;51.368;11.984;2023-03-14T23:55:06;7.50;;;2.37;;
